Time,TemperatureF,DewpointF,PressureIn,WindDirection,WindDirectionDegrees,WindSpeedMPH,WindSpeedGustMPH,Humidity,HourlyPrecipIn,Conditions,Clouds,dailyrainin,SolarRadiationWatts/m^2,SoftwareType,DateUTC
2013-07-24 00:09:00,77.0,67.0,30.13,SW,230,3.0,12.0,71,0.00,,,0.58,154.000000,,2013-07-24 00:09:00,
2013-07-24 00:10:00,74.0,67.0,30.09,WSW,244,4.0,8.0,78,0.00,,,0.58,56.000000,,2013-07-24 00:10:00,
2013-07-24 00:50:00,74.0,67.0,30.09,WSW,244,4.0,8.0,78,0.00,,,0.58,56.000000,,2013-07-24 00:50:00,
2013-07-24 00:58:00,74.0,67.0,30.09,WSW,244,4.0,8.0,78,0.00,,,0.58,56.000000,,2013-07-24 00:58:00,
2013-07-24 01:04:00,74.0,67.0,30.09,WSW,244,4.0,8.0,78,0.00,,,0.58,56.000000,,2013-07-24 01:04:00,
2013-07-24 01:47:00,72.0,67.0,30.10,WNW,282,2.0,8.0,83,0.00,,,0.01,6.000000,,2013-07-24 01:47:00,
2013-07-24 02:01:00,72.0,67.0,30.10,WNW,282,2.0,8.0,83,0.00,,,0.01,6.000000,,2013-07-24 02:01:00,
2013-07-24 02:10:00,69.0,64.0,30.19,WNW,290,4.0,10.0,83,0.00,,,0.01,0.000000,,2013-07-24 02:10:00,
2013-07-24 02:48:00,69.0,64.0,30.19,WNW,290,4.0,10.0,83,0.00,,,0.01,0.000000,,2013-07-24 02:48:00,
2013-07-24 02:57:00,69.0,64.0,30.19,WNW,290,4.0,10.0,83,0.00,,,0.01,0.000000,,2013-07-24 02:57:00,
2013-07-24 03:05:00,69.0,64.0,30.19,WNW,290,4.0,10.0,83,0.00,,,0.01,0.000000,,2013-07-24 03:05:00,
2013-07-24 03:10:00,69.0,65.0,30.20,WNW,288,2.0,11.0,88,0.00,,,0.01,0.000000,,2013-07-24 03:10:00,
2013-07-24 03:46:00,69.0,65.0,30.20,WNW,288,2.0,11.0,88,0.00,,,0.01,0.000000,,2013-07-24 03:46:00,
2013-07-24 04:01:00,69.0,65.0,30.20,WNW,288,2.0,11.0,88,0.00,,,0.01,0.000000,,2013-07-24 04:01:00,
2013-07-24 04:10:00,67.0,64.0,30.25,WNW,282,4.0,7.0,90,0.00,,,0.01,0.000000,,2013-07-24 04:10:00,
2013-07-24 04:43:00,67.0,64.0,30.25,WNW,282,4.0,7.0,90,0.00,,,0.01,0.000000,,2013-07-24 04:43:00,
2013-07-24 04:53:00,67.0,64.0,30.25,WNW,282,4.0,7.0,90,0.00,,,0.01,0.000000,,2013-07-24 04:53:00,
2013-07-24 05:02:00,67.0,64.0,30.25,WNW,282,4.0,7.0,90,0.00,,,0.01,0.000000,,2013-07-24 05:02:00,
2013-07-24 05:10:00,67.0,66.0,30.27,NNW,328,1.0,7.0,97,0.00,,,0.01,0.000000,,2013-07-24 05:10:00,
2013-07-24 05:43:00,67.0,66.0,30.27,NNW,328,1.0,7.0,97,0.00,,,0.01,0.000000,,2013-07-24 05:43:00,
2013-07-24 05:52:00,67.0,66.0,30.27,NNW,328,1.0,7.0,97,0.00,,,0.01,0.000000,,2013-07-24 05:52:00,
2013-07-24 06:01:00,67.0,66.0,30.27,NNW,328,1.0,7.0,97,0.00,,,0.01,0.000000,,2013-07-24 06:01:00,
2013-07-24 06:10:00,67.0,66.0,30.27,SSW,211,3.0,6.0,98,0.00,,,0.01,0.000000,,2013-07-24 06:10:00,
2013-07-24 06:43:00,67.0,66.0,30.27,SSW,211,3.0,6.0,98,0.00,,,0.01,0.000000,,2013-07-24 06:43:00,
2013-07-24 06:53:00,67.0,66.0,30.27,SSW,211,3.0,6.0,98,0.00,,,0.01,0.000000,,2013-07-24 06:53:00,
2013-07-24 07:02:00,67.0,66.0,30.27,SSW,211,3.0,6.0,98,0.00,,,0.01,0.000000,,2013-07-24 07:02:00,
2013-07-24 07:10:00,67.0,67.0,30.29,West,274,4.0,6.0,99,0.00,,,0.01,0.000000,,2013-07-24 07:10:00,
2013-07-24 07:43:00,67.0,67.0,30.29,West,274,4.0,6.0,99,0.00,,,0.01,0.000000,,2013-07-24 07:43:00,
2013-07-24 07:53:00,67.0,67.0,30.29,West,274,4.0,6.0,99,0.00,,,0.01,0.000000,,2013-07-24 07:53:00,
2013-07-24 08:02:00,67.0,67.0,30.29,West,274,4.0,6.0,99,0.00,,,0.01,0.000000,,2013-07-24 08:02:00,
2013-07-24 08:10:00,66.0,66.0,30.30,West,281,3.0,9.0,99,0.00,,,0.01,0.000000,,2013-07-24 08:10:00,
2013-07-24 08:32:00,66.0,66.0,30.30,West,281,3.0,9.0,99,0.00,,,0.01,0.000000,,2013-07-24 08:32:00,
2013-07-24 08:43:00,66.0,66.0,30.30,West,281,3.0,9.0,99,0.00,,,0.01,0.000000,,2013-07-24 08:43:00,
2013-07-24 08:52:00,66.0,66.0,30.30,West,281,3.0,9.0,99,0.00,,,0.01,0.000000,,2013-07-24 08:52:00,
2013-07-24 09:02:00,66.0,66.0,30.30,West,281,3.0,9.0,99,0.00,,,0.01,0.000000,,2013-07-24 09:02:00,
2013-07-24 09:10:00,65.0,65.0,30.25,WNW,285,3.0,8.0,99,0.00,,,0.01,0.000000,,2013-07-24 09:10:00,
2013-07-24 09:43:00,65.0,65.0,30.25,WNW,285,3.0,8.0,99,0.00,,,0.01,0.000000,,2013-07-24 09:43:00,
2013-07-24 09:53:00,65.0,65.0,30.25,WNW,285,3.0,8.0,99,0.00,,,0.01,0.000000,,2013-07-24 09:53:00,
2013-07-24 10:02:00,65.0,65.0,30.25,WNW,285,3.0,8.0,99,0.00,,,0.01,0.000000,,2013-07-24 10:02:00,
2013-07-24 10:10:00,67.0,67.0,30.28,WNW,286,4.0,7.0,99,0.00,,,0.01,0.000000,,2013-07-24 10:10:00,
2013-07-24 10:43:00,67.0,67.0,30.28,WNW,286,4.0,7.0,99,0.00,,,0.01,0.000000,,2013-07-24 10:43:00,
2013-07-24 10:53:00,67.0,67.0,30.28,WNW,286,4.0,7.0,99,0.00,,,0.01,0.000000,,2013-07-24 10:53:00,
2013-07-24 11:02:00,67.0,67.0,30.28,WNW,286,4.0,7.0,99,0.00,,,0.01,0.000000,,2013-07-24 11:02:00,
2013-07-24 11:10:00,65.0,65.0,30.28,NNE,15,1.0,8.0,99,0.00,,,0.01,8.000000,,2013-07-24 11:10:00,
2013-07-24 11:44:00,65.0,65.0,30.28,NNE,15,1.0,8.0,99,0.00,,,0.01,8.000000,,2013-07-24 11:44:00,
2013-07-24 11:52:00,65.0,65.0,30.28,NNE,15,1.0,8.0,99,0.00,,,0.01,8.000000,,2013-07-24 11:52:00,
2013-07-24 12:02:00,65.0,65.0,30.28,NNE,15,1.0,8.0,99,0.00,,,0.01,8.000000,,2013-07-24 12:02:00,
2013-07-24 12:10:00,69.0,69.0,30.41,North,7,1.0,3.0,99,0.00,,,0.01,68.000000,,2013-07-24 12:10:00,
2013-07-24 12:42:00,69.0,69.0,30.41,North,7,1.0,3.0,99,0.00,,,0.01,68.000000,,2013-07-24 12:42:00,
2013-07-24 12:52:00,69.0,69.0,30.41,North,7,1.0,3.0,99,0.00,,,0.01,68.000000,,2013-07-24 12:52:00,
2013-07-24 13:02:00,69.0,69.0,30.41,North,7,1.0,3.0,99,0.00,,,0.01,68.000000,,2013-07-24 13:02:00,
2013-07-24 14:10:00,77.0,68.0,30.57,North,355,2.0,7.0,74,0.00,,,0.01,292.000000,,2013-07-24 14:10:00,
2013-07-24 14:43:00,77.0,68.0,30.57,North,355,2.0,7.0,74,0.00,,,0.01,292.000000,,2013-07-24 14:43:00,
2013-07-24 14:55:00,77.0,68.0,30.57,North,355,2.0,7.0,74,0.00,,,0.01,292.000000,,2013-07-24 14:55:00,
2013-07-24 15:02:00,77.0,68.0,30.57,North,355,2.0,7.0,74,0.00,,,0.01,292.000000,,2013-07-24 15:02:00,
2013-07-24 15:10:00,84.0,70.0,30.66,NNW,341,1.0,7.0,63,0.00,,,0.00,655.000000,,2013-07-24 15:10:00,
2013-07-24 16:02:00,84.0,70.0,30.66,NNW,341,1.0,7.0,63,0.00,,,0.00,655.000000,,2013-07-24 16:02:00,
2013-07-24 16:10:00,81.0,65.0,30.46,WSW,257,4.0,10.0,58,0.00,,,0.00,855.000000,,2013-07-24 16:10:00,
2013-07-24 16:33:00,81.0,65.0,30.46,WSW,257,4.0,10.0,58,0.00,,,0.00,855.000000,,2013-07-24 16:33:00,
2013-07-24 16:43:00,81.0,65.0,30.46,WSW,257,4.0,10.0,58,0.00,,,0.00,855.000000,,2013-07-24 16:43:00,
2013-07-24 16:53:00,81.0,65.0,30.46,WSW,257,4.0,10.0,58,0.00,,,0.00,855.000000,,2013-07-24 16:53:00,
2013-07-24 17:02:00,81.0,65.0,30.46,WSW,257,4.0,10.0,58,0.00,,,0.00,855.000000,,2013-07-24 17:02:00,
2013-07-24 17:10:00,84.0,67.0,30.46,WNW,290,3.0,8.0,57,0.00,,,0.00,696.000000,,2013-07-24 17:10:00,
2013-07-24 17:33:00,84.0,67.0,30.46,WNW,290,3.0,8.0,57,0.00,,,0.00,696.000000,,2013-07-24 17:33:00,
2013-07-24 17:43:00,84.0,67.0,30.46,WNW,290,3.0,8.0,57,0.00,,,0.00,696.000000,,2013-07-24 17:43:00,
2013-07-24 17:53:00,84.0,67.0,30.46,WNW,290,3.0,8.0,57,0.00,,,0.00,696.000000,,2013-07-24 17:53:00,
2013-07-24 18:02:00,84.0,67.0,30.46,WNW,290,3.0,8.0,57,0.00,,,0.00,696.000000,,2013-07-24 18:02:00,
2013-07-24 18:10:00,84.0,69.0,30.42,WNW,292,4.0,10.0,60,0.00,,,-99.99,560.000000,,2013-07-24 18:10:00,
2013-07-24 18:33:00,84.0,69.0,30.42,WNW,292,4.0,10.0,60,0.00,,,-99.99,560.000000,,2013-07-24 18:33:00,
2013-07-24 18:43:00,84.0,69.0,30.42,WNW,292,4.0,10.0,60,0.00,,,-99.99,560.000000,,2013-07-24 18:43:00,
2013-07-24 18:52:00,84.0,69.0,30.42,WNW,292,4.0,10.0,60,0.00,,,-99.99,560.000000,,2013-07-24 18:52:00,
2013-07-24 19:02:00,84.0,69.0,30.42,WNW,292,4.0,10.0,60,0.00,,,-99.99,560.000000,,2013-07-24 19:02:00,
2013-07-24 19:53:00,88.0,70.0,30.48,NW,313,3.0,13.0,56,0.00,,,0.00,916.000000,,2013-07-24 19:53:00,
2013-07-24 20:02:00,88.0,70.0,30.48,NW,313,3.0,13.0,56,0.00,,,0.00,916.000000,,2013-07-24 20:02:00,
2013-07-24 20:33:00,86.0,66.0,30.32,WNW,296,4.0,14.0,52,-99.99,,,0.00,847.000000,,2013-07-24 20:33:00,
2013-07-24 20:43:00,86.0,66.0,30.32,WNW,296,4.0,14.0,52,-99.99,,,0.00,847.000000,,2013-07-24 20:43:00,
2013-07-24 21:10:00,82.0,69.0,30.12,NNW,336,2.0,9.0,65,-99.99,,,0.00,450.000000,,2013-07-24 21:10:00,
2013-07-24 21:44:00,82.0,69.0,30.12,NNW,336,2.0,9.0,65,-99.99,,,0.00,450.000000,,2013-07-24 21:44:00,
2013-07-24 21:53:00,82.0,69.0,30.12,NNW,336,2.0,9.0,65,-99.99,,,0.00,450.000000,,2013-07-24 21:53:00,
2013-07-24 22:02:00,82.0,69.0,30.12,NNW,336,2.0,9.0,65,-99.99,,,0.00,450.000000,,2013-07-24 22:02:00,
2013-07-24 22:10:00,79.0,64.0,30.15,West,259,3.0,12.0,60,0.00,,,0.00,319.000000,,2013-07-24 22:10:00,
2013-07-24 22:43:00,79.0,64.0,30.15,West,259,3.0,12.0,60,0.00,,,0.00,319.000000,,2013-07-24 22:43:00,
2013-07-24 22:53:00,79.0,64.0,30.15,West,259,3.0,12.0,60,0.00,,,0.00,319.000000,,2013-07-24 22:53:00,
2013-07-24 23:02:00,79.0,64.0,30.15,West,259,3.0,12.0,60,0.00,,,0.00,319.000000,,2013-07-24 23:02:00,
2013-07-24 23:10:00,73.0,62.0,29.85,SE,127,5.0,17.0,68,0.00,,,0.00,225.000000,,2013-07-24 23:10:00,
2013-07-24 23:43:00,73.0,62.0,29.85,SE,127,5.0,17.0,68,0.00,,,0.00,225.000000,,2013-07-24 23:43:00,
2013-07-24 23:52:00,73.0,62.0,29.85,SE,127,5.0,17.0,68,0.00,,,0.00,225.000000,,2013-07-24 23:52:00,